AirNav   Pilot Hours Calculator
 
 476 users online  

1G8 Eddie Dew Memorial Airpark
Toronto, Ohio, USA

GOING TO TORONTO?


FAA INFORMATION EFFECTIVE 07 OCTOBER 2021

Location

FAA Identifier: 1G8
Lat/Long: 40-28-33.5600N 080-37-41.0150W
40-28.559333N 080-37.683583W
40.4759889,-80.6280597
(estimated)
Elevation: 1067 ft. / 325 m (estimated)
Variation: 07W (1985)
From city: 2 miles NW of TORONTO, OH
Time zone: UTC -4 (UTC -5 during Standard Time)
Zip code: 43964

Airport Operations

Airport use: Open to the public
Activation date: 12/1937
Control tower: no
ARTCC: CLEVELAND CENTER
FSS: CLEVELAND FLIGHT SERVICE STATION
NOTAMs facility: CLE (NOTAM-D service available)
Attendance: IREG
Wind indicator: yes
Segmented circle: no
Lights: ACTVT NSTD LIRL RWY 16/34 - CTAF.

Airport Communications

CTAF: 122.9
WX ASOS at PIT (18 nm E): PHONE 412-472-0145
WX ASOS at HLG (18 nm S): 127.375 (304-277-3504)

Nearby radio navigation aids

VOR radial/distance  VOR name  Freq  Var
HLGr355/13.2WHEELING VOR/DME112.2007W
EWCr230/28.2ELLWOOD CITY VOR/DME115.8008W
AIRr024/28.9BELLAIRE VOR/DME117.1007W
AGCr303/29.3ALLEGHENY VOR/DME110.0009W
BSVr117/39.9BRIGGS VOR/DME112.4004W

 
NDB name  Hdg/Dist  Freq  Var  ID
CADIZ058/22.723907WCFX -.-. ..-. -..-
CASTLE205/34.227209WUCP ..- -.-. .--.

Airport Services

Parking: tiedowns
Airframe service: NONE
Powerplant service: NONE
Bottled oxygen: NONE
Bulk oxygen: NONE

Runway Information

Runway 17/35

Dimensions: 2268 x 145 ft. / 691 x 44 m
Surface: turf, in good condition
Runway edge lights: non-standard
NSTD LIRL DUE TO 360 DEG GREEN LGTS AT RWY ENDS.
RUNWAY 17  RUNWAY 35
Latitude: 40-28.734500N40-28.384167N
Longitude: 080-37.768333W080-37.598833W
Elevation: 1059.0 ft.1067.0 ft.
Traffic pattern: leftleft
Runway heading: 167 magnetic, 160 true347 magnetic, 340 true
Runway end identifier lights: nono
Obstructions: 55 ft. trees, 100 ft. left of centerline
ALSO +15 FT ROAD, 35 FT DIST, 90 FT L & R, 2:1 SLP; +15 FT ROAD, 55 FT DIST, ON CL, 5:1 SLP.
77 ft. trees, 35 ft. from runway, 100 ft. right of centerline

Airport Ownership and Management from official FAA records

Ownership: Privately-owned
Owner: EDDIE DEW MEML AIRPARK
611 TOWNSHIP HIGHWAY 245
TORONTO, OH 43964-7850
Phone 740-632-3332
Manager: RICH GRANTONIC
645 MCLISTER AVE
MINGO JUNCTION, OH 43938-1285
Phone 740-632-3332
OTR CTC ERIC PALMER 740-457-9902.

Airport Operational Statistics

Aircraft based on the field: 20
Single engine airplanes: 17
Helicopters: 1
Ultralights: 2
    
Aircraft operations: avg 54/month *
92% local general aviation
8% transient general aviation
* for 12-month period ending 30 July 2020

Additional Remarks

DEER, BIRDS, & OTR WILDLIFE ON & INVOF ARPT.
FOR CD CTC PITTSBURGH APCH AT 412-472-5591.

Instrument Procedures

There are no published instrument procedures at 1G8.

Some nearby airports with instrument procedures:

2G2 - Jefferson County Airpark (8 nm SW)
02G - Columbiana County Airport (12 nm N)
KPIT - Pittsburgh International Airport (18 nm E)
KHLG - Wheeling Ohio County Airport (18 nm S)
KBVI - Beaver County Airport (21 nm NE)
 
Loc | Ops | Rwys | IFR | FBO | Links
Com | Nav | Svcs | Stats | Notes
Area around 1G8 (Eddie Dew Memorial Airpark)
 
Road maps at: MapQuest Bing Google
 
Aerial photo
WARNING: Photo may not be current or correct
Aerial photo of 1G8 (Eddie Dew Memorial Airpark)
Photo by Steve Kalasky
Taken early October 2010
looking northwest.

Do you have a better or more recent aerial photo of Eddie Dew Memorial Airpark that you would like to share? If so, please send us your photo.

 
Sectional chart

 
Airport distance calculator
Flying to Eddie Dew Memorial Airpark? Find the distance to fly.

From to 1G8

Sunrise and sunset
Times for 16-Oct-2021
 Local
(UTC-4)
 Zulu
(UTC)
Morning civil twilight07:0811:08
Sunrise07:3611:36
Sunset18:4122:41
Evening civil twilight19:0823:08

Current date and time
Zulu (UTC)  16-Oct-2021 06:40:38
Local (UTC-4)  16-Oct-2021 02:40:38
 
METAR
KPIT 
17nm E 
160551Z 20005KT 8SM SCT006 BKN016 OVC030 19/18 A2973 RMK AO2 RAE47 SLP065 P0008 60018 T01890183 10222 20189 56024
KHLG 
19nm S 
160609Z AUTO 21007KT 10SM FEW007 BKN013 OVC034 19/18 A2974 RMK AO2 T01890183
KBVI 
20nm NE 
160615Z AUTO 20004KT 10SM BKN004 BKN016 OVC030 20/18 A2973 RMK AO2 T02010182
KAFJ 
27nm SE 
160559Z AUTO 24004KT 9SM BKN013 18/18 A2978 RMK AO2
KPJC 
29nm NE 
160615Z AUTO 15003KT 10SM BKN009 BKN040 OVC050 19/18 A2971 RMK AO2 P0003
TAF
KPIT 
17nm E 
160520Z 1606/1712 23010KT P6SM BKN035 FM160800 21006KT 6SM -RA OVC010 TEMPO 1611/1615 5SM -RA OVC008 FM161500 29014G20KT 6SM -RA OVC015 FM161900 28012G22KT P6SM BKN025 FM170300 29012G22KT P6SM OVC015
KHLG 
19nm S 
160520Z 1606/1706 23010KT P6SM BKN025 FM160800 21006KT 6SM -RA OVC010 TEMPO 1611/1615 5SM -RA OVC008 FM161500 29014G20KT 6SM -RA OVC015 FM161900 28012G22KT P6SM BKN025 FM170300 29012G22KT P6SM OVC015
KBVI 
20nm NE 
160520Z 1606/1706 23010KT P6SM BKN035 FM160800 21006KT 6SM -RA OVC010 TEMPO 1611/1615 5SM -RA OVC008 FM161500 29014G20KT 6SM -RA OVC015 FM161900 28012G22KT P6SM BKN025 FM170300 29012G22KT P6SM OVC015
NOTAMs
Click for the latest NOTAMs
NOTAMs are issued by the DoD/FAA and will open in a separate window not controlled by AirNav.

 

 
 

Would you like to see your business listed on this page?

 If your business provides an interesting product or service to pilots, flight crews, aircraft, or users of the Eddie Dew Memorial Airpark, you should consider listing it here.  To start the listing process, click on the button below
 
Add a business
 

Other Pages about Eddie Dew Memorial Airpark

Update a link
 
Copyright © AirNav, LLC. All rights reserved. Privacy Policy  Contact